sensor_id;sensor_type;location;lat;lon;timestamp;pressure;altitude;pressure_sealevel;temperature;humidity
77469;BME280;68840;50.272;12.818;2023-09-18T00:00:11;95851;;;16.6;70.8
77469;BME280;68840;50.272;12.818;2023-09-18T00:02:05;95850;;;16.5;69.8
77469;BME280;68840;50.272;12.818;2023-09-18T00:04:06;95848;;;16.5;70.3
77469;BME280;68840;50.272;12.818;2023-09-18T00:06:06;95847;;;16.5;70.6
77469;BME280;68840;50.272;12.818;2023-09-18T00:08:05;95842;;;16.5;70.5
77469;BME280;68840;50.272;12.818;2023-09-18T00:10:06;95841;;;16.4;71.5
77469;BME280;68840;50.272;12.818;2023-09-18T00:12:06;95838;;;16.4;70.3
77469;BME280;68840;50.272;12.818;2023-09-18T00:14:07;95838;;;16.4;72.6
77469;BME280;68840;50.272;12.818;2023-09-18T00:16:05;95837;;;16.4;70.1
77469;BME280;68840;50.272;12.818;2023-09-18T00:18:05;95835;;;16.4;72.7
77469;BME280;68840;50.272;12.818;2023-09-18T00:20:07;95833;;;16.4;71.8
77469;BME280;68840;50.272;12.818;2023-09-18T00:22:06;95832;;;16.4;71.1
77469;BME280;68840;50.272;12.818;2023-09-18T00:24:08;95829;;;16.4;70.1
77469;BME280;68840;50.272;12.818;2023-09-18T00:26:05;95826;;;16.3;70.8
77469;BME280;68840;50.272;12.818;2023-09-18T00:28:05;95822;;;16.3;70.2
77469;BME280;68840;50.272;12.818;2023-09-18T00:30:06;95820;;;16.3;71.8
77469;BME280;68840;50.272;12.818;2023-09-18T00:32:06;95819;;;16.3;72.0
77469;BME280;68840;50.272;12.818;2023-09-18T00:34:05;95815;;;16.3;70.6
77469;BME280;68840;50.272;12.818;2023-09-18T00:36:05;95811;;;16.2;71.0
77469;BME280;68840;50.272;12.818;2023-09-18T00:38:07;95808;;;16.2;71.4
77469;BME280;68840;50.272;12.818;2023-09-18T00:40:06;95805;;;16.2;72.2
77469;BME280;68840;50.272;12.818;2023-09-18T00:42:05;95803;;;16.2;71.4
77469;BME280;68840;50.272;12.818;2023-09-18T00:44:06;95800;;;16.2;72.0
77469;BME280;68840;50.272;12.818;2023-09-18T00:46:06;95797;;;16.3;71.5
77469;BME280;68840;50.272;12.818;2023-09-18T00:48:06;95795;;;16.3;70.0
77469;BME280;68840;50.272;12.818;2023-09-18T00:50:09;95794;;;16.3;71.2
77469;BME280;68840;50.272;12.818;2023-09-18T00:52:07;95792;;;16.3;70.2
77469;BME280;68840;50.272;12.818;2023-09-18T00:54:06;95790;;;16.2;71.0
77469;BME280;68840;50.272;12.818;2023-09-18T00:56:05;95789;;;16.2;70.2
77469;BME280;68840;50.272;12.818;2023-09-18T00:58:06;95787;;;16.2;70.5
77469;BME280;68840;50.272;12.818;2023-09-18T01:00:06;95782;;;16.2;69.7
77469;BME280;68840;50.272;12.818;2023-09-18T01:02:06;95779;;;16.2;70.8
77469;BME280;68840;50.272;12.818;2023-09-18T01:04:06;95775;;;16.2;70.4
77469;BME280;68840;50.272;12.818;2023-09-18T01:06:05;95774;;;16.1;70.9
77469;BME280;68840;50.272;12.818;2023-09-18T01:08:05;95771;;;16.1;71.6
77469;BME280;68840;50.272;12.818;2023-09-18T01:10:09;95765;;;16.0;72.0
77469;BME280;68840;50.272;12.818;2023-09-18T01:12:09;95761;;;16.0;72.3
77469;BME280;68840;50.272;12.818;2023-09-18T01:14:11;95756;;;16.0;72.4
77469;BME280;68840;50.272;12.818;2023-09-18T01:16:10;95753;;;16.0;70.4
77469;BME280;68840;50.272;12.818;2023-09-18T01:18:05;95753;;;16.0;72.0
77469;BME280;68840;50.272;12.818;2023-09-18T01:20:09;95751;;;16.0;71.6
77469;BME280;68840;50.272;12.818;2023-09-18T01:22:07;95749;;;15.9;71.7
77469;BME280;68840;50.272;12.818;2023-09-18T01:24:05;95745;;;15.9;72.2
77469;BME280;68840;50.272;12.818;2023-09-18T01:26:06;95744;;;15.9;71.8
77469;BME280;68840;50.272;12.818;2023-09-18T01:28:05;95742;;;15.9;70.9
77469;BME280;68840;50.272;12.818;2023-09-18T01:30:06;95737;;;15.9;70.0
77469;BME280;68840;50.272;12.818;2023-09-18T01:32:05;95733;;;15.8;71.1
77469;BME280;68840;50.272;12.818;2023-09-18T01:34:05;95733;;;15.8;70.9
77469;BME280;68840;50.272;12.818;2023-09-18T01:36:07;95737;;;15.8;72.9
77469;BME280;68840;50.272;12.818;2023-09-18T01:38:06;95737;;;15.7;73.4
77469;BME280;68840;50.272;12.818;2023-09-18T01:40:07;95738;;;15.7;73.5
77469;BME280;68840;50.272;12.818;2023-09-18T01:42:06;95733;;;15.7;71.2
77469;BME280;68840;50.272;12.818;2023-09-18T01:44:06;95730;;;15.6;71.8
77469;BME280;68840;50.272;12.818;2023-09-18T01:46:05;95729;;;15.6;71.3
77469;BME280;68840;50.272;12.818;2023-09-18T01:48:06;95732;;;15.5;71.8
77469;BME280;68840;50.272;12.818;2023-09-18T01:50:06;95734;;;15.5;75.2
77469;BME280;68840;50.272;12.818;2023-09-18T01:52:07;95728;;;15.5;70.8
77469;BME280;68840;50.272;12.818;2023-09-18T01:54:06;95726;;;15.4;72.3
77469;BME280;68840;50.272;12.818;2023-09-18T01:56:05;95726;;;15.4;74.7
77469;BME280;68840;50.272;12.818;2023-09-18T01:58:05;95727;;;15.4;75.2
77469;BME280;68840;50.272;12.818;2023-09-18T02:00:07;95725;;;15.4;73.6
77469;BME280;68840;50.272;12.818;2023-09-18T02:02:07;95722;;;15.4;71.9
77469;BME280;68840;50.272;12.818;2023-09-18T02:04:05;95717;;;15.4;70.9
77469;BME280;68840;50.272;12.818;2023-09-18T02:06:05;95712;;;15.3;71.2
77469;BME280;68840;50.272;12.818;2023-09-18T02:08:05;95713;;;15.3;74.1
77469;BME280;68840;50.272;12.818;2023-09-18T02:10:07;95717;;;15.3;74.6
77469;BME280;68840;50.272;12.818;2023-09-18T02:12:06;95718;;;15.2;74.0
77469;BME280;68840;50.272;12.818;2023-09-18T02:14:06;95718;;;15.2;75.3
77469;BME280;68840;50.272;12.818;2023-09-18T02:16:05;95713;;;15.2;73.0
77469;BME280;68840;50.272;12.818;2023-09-18T02:18:05;95712;;;15.2;73.6
77469;BME280;68840;50.272;12.818;2023-09-18T02:20:11;95713;;;15.1;75.8
77469;BME280;68840;50.272;12.818;2023-09-18T02:22:06;95711;;;15.1;74.3
77469;BME280;68840;50.272;12.818;2023-09-18T02:24:06;95709;;;15.1;75.9
77469;BME280;68840;50.272;12.818;2023-09-18T02:26:05;95704;;;15.1;74.5
77469;BME280;68840;50.272;12.818;2023-09-18T02:28:06;95704;;;15.0;75.7
77469;BME280;68840;50.272;12.818;2023-09-18T02:30:06;95704;;;15.0;76.5
77469;BME280;68840;50.272;12.818;2023-09-18T02:32:05;95701;;;15.0;74.1
77469;BME280;68840;50.272;12.818;2023-09-18T02:34:07;95698;;;15.0;76.2
77469;BME280;68840;50.272;12.818;2023-09-18T02:36:06;95697;;;14.9;76.3
77469;BME280;68840;50.272;12.818;2023-09-18T02:38:05;95697;;;14.9;75.4
77469;BME280;68840;50.272;12.818;2023-09-18T02:40:07;95695;;;14.9;73.9
77469;BME280;68840;50.272;12.818;2023-09-18T02:42:05;95691;;;14.9;75.4
77469;BME280;68840;50.272;12.818;2023-09-18T02:44:06;95685;;;14.9;77.4
77469;BME280;68840;50.272;12.818;2023-09-18T02:46:06;95686;;;14.9;77.6
77469;BME280;68840;50.272;12.818;2023-09-18T02:48:05;95679;;;14.9;79.5
77469;BME280;68840;50.272;12.818;2023-09-18T02:50:06;95677;;;14.9;79.1
77469;BME280;68840;50.272;12.818;2023-09-18T02:52:05;95675;;;14.9;80.1
77469;BME280;68840;50.272;12.818;2023-09-18T02:54:05;95677;;;15.0;79.0
77469;BME280;68840;50.272;12.818;2023-09-18T02:56:06;95675;;;15.0;79.0
77469;BME280;68840;50.272;12.818;2023-09-18T02:58:05;95673;;;15.0;81.2
77469;BME280;68840;50.272;12.818;2023-09-18T03:00:06;95670;;;15.1;81.6
77469;BME280;68840;50.272;12.818;2023-09-18T03:02:05;95672;;;15.2;81.8
77469;BME280;68840;50.272;12.818;2023-09-18T03:04:06;95671;;;15.2;80.0
77469;BME280;68840;50.272;12.818;2023-09-18T03:06:06;95672;;;15.2;80.1
77469;BME280;68840;50.272;12.818;2023-09-18T03:08:06;95671;;;15.3;77.7
77469;BME280;68840;50.272;12.818;2023-09-18T03:10:06;95673;;;15.3;75.7
77469;BME280;68840;50.272;12.818;2023-09-18T03:12:05;95674;;;15.3;76.7
77469;BME280;68840;50.272;12.818;2023-09-18T03:14:05;95676;;;15.3;78.7
77469;BME280;68840;50.272;12.818;2023-09-18T03:16:06;95677;;;15.3;75.5
77469;BME280;68840;50.272;12.818;2023-09-18T03:18:07;95676;;;15.3;78.4
77469;BME280;68840;50.272;12.818;2023-09-18T03:20:06;95673;;;15.3;75.3
77469;BME280;68840;50.272;12.818;2023-09-18T03:22:05;95669;;;15.3;74.4
77469;BME280;68840;50.272;12.818;2023-09-18T03:24:06;95669;;;15.3;74.6
77469;BME280;68840;50.272;12.818;2023-09-18T03:26:05;95669;;;15.3;75.9
77469;BME280;68840;50.272;12.818;2023-09-18T03:28:05;95664;;;15.2;78.6
77469;BME280;68840;50.272;12.818;2023-09-18T03:30:06;95659;;;15.2;76.1
77469;BME280;68840;50.272;12.818;2023-09-18T03:32:05;95657;;;15.2;75.3
77469;BME280;68840;50.272;12.818;2023-09-18T03:34:05;95658;;;15.2;78.6
77469;BME280;68840;50.272;12.818;2023-09-18T03:36:07;95660;;;15.1;76.5
77469;BME280;68840;50.272;12.818;2023-09-18T03:38:05;95659;;;15.1;75.7
77469;BME280;68840;50.272;12.818;2023-09-18T03:40:07;95660;;;15.1;76.8
77469;BME280;68840;50.272;12.818;2023-09-18T03:42:05;95658;;;15.0;75.7
77469;BME280;68840;50.272;12.818;2023-09-18T03:44:06;95658;;;15.0;76.8
77469;BME280;68840;50.272;12.818;2023-09-18T03:46:06;95657;;;15.0;75.8
77469;BME280;68840;50.272;12.818;2023-09-18T03:48:05;95654;;;15.0;74.5
77469;BME280;68840;50.272;12.818;2023-09-18T03:50:06;95654;;;14.9;78.3
77469;BME280;68840;50.272;12.818;2023-09-18T03:52:05;95652;;;14.9;74.5
77469;BME280;68840;50.272;12.818;2023-09-18T03:54:05;95647;;;14.9;72.5
77469;BME280;68840;50.272;12.818;2023-09-18T03:56:05;95644;;;14.8;76.7
77469;BME280;68840;50.272;12.818;2023-09-18T03:58:06;95644;;;14.8;74.4
77469;BME280;68840;50.272;12.818;2023-09-18T04:00:07;95642;;;14.8;73.7
77469;BME280;68840;50.272;12.818;2023-09-18T04:02:06;95640;;;14.7;73.4
77469;BME280;68840;50.272;12.818;2023-09-18T04:04:06;95638;;;14.7;78.4
77469;BME280;68840;50.272;12.818;2023-09-18T04:06:06;95637;;;14.7;80.7
77469;BME280;68840;50.272;12.818;2023-09-18T04:08:05;95636;;;14.7;76.9
77469;BME280;68840;50.272;12.818;2023-09-18T04:10:05;95636;;;14.7;82.5
77469;BME280;68840;50.272;12.818;2023-09-18T04:12:06;95632;;;14.7;82.6
77469;BME280;68840;50.272;12.818;2023-09-18T04:14:05;95630;;;14.7;83.3
77469;BME280;68840;50.272;12.818;2023-09-18T04:16:05;95620;;;14.8;84.7
77469;BME280;68840;50.272;12.818;2023-09-18T04:18:05;95615;;;14.8;83.9
77469;BME280;68840;50.272;12.818;2023-09-18T04:20:06;95607;;;14.8;84.9
77469;BME280;68840;50.272;12.818;2023-09-18T04:22:05;95600;;;14.8;84.3
77469;BME280;68840;50.272;12.818;2023-09-18T04:24:06;95597;;;14.9;85.3
77469;BME280;68840;50.272;12.818;2023-09-18T04:26:05;95593;;;14.9;87.0
77469;BME280;68840;50.272;12.818;2023-09-18T04:28:05;95589;;;14.9;87.6
77469;BME280;68840;50.272;12.818;2023-09-18T04:30:06;95588;;;15.0;87.4
77469;BME280;68840;50.272;12.818;2023-09-18T04:32:06;95589;;;15.1;86.4
77469;BME280;68840;50.272;12.818;2023-09-18T04:34:05;95591;;;15.1;86.2
77469;BME280;68840;50.272;12.818;2023-09-18T04:36:06;95586;;;15.2;84.7
77469;BME280;68840;50.272;12.818;2023-09-18T04:38:06;95584;;;15.2;84.2
77469;BME280;68840;50.272;12.818;2023-09-18T04:40:09;95585;;;15.3;81.9
77469;BME280;68840;50.272;12.818;2023-09-18T04:42:06;95589;;;15.3;78.6
77469;BME280;68840;50.272;12.818;2023-09-18T04:44:07;95590;;;15.3;75.7
77469;BME280;68840;50.272;12.818;2023-09-18T04:46:06;95590;;;15.3;74.5
77469;BME280;68840;50.272;12.818;2023-09-18T04:48:05;95590;;;15.3;74.8
77469;BME280;68840;50.272;12.818;2023-09-18T04:50:09;95592;;;15.2;73.2
77469;BME280;68840;50.272;12.818;2023-09-18T04:52:06;95593;;;15.2;76.1
77469;BME280;68840;50.272;12.818;2023-09-18T04:54:06;95590;;;15.1;77.7
77469;BME280;68840;50.272;12.818;2023-09-18T04:56:05;95591;;;15.1;80.7
77469;BME280;68840;50.272;12.818;2023-09-18T04:58:06;95589;;;15.1;82.5
77469;BME280;68840;50.272;12.818;2023-09-18T05:00:08;95584;;;15.0;80.8
77469;BME280;68840;50.272;12.818;2023-09-18T05:02:05;95582;;;15.0;83.1
77469;BME280;68840;50.272;12.818;2023-09-18T05:04:05;95580;;;15.0;82.6
77469;BME280;68840;50.272;12.818;2023-09-18T05:06:05;95582;;;15.0;82.3
77469;BME280;68840;50.272;12.818;2023-09-18T05:08:07;95580;;;15.0;81.8
77469;BME280;68840;50.272;12.818;2023-09-18T05:10:06;95577;;;15.1;82.1
77469;BME280;68840;50.272;12.818;2023-09-18T05:12:08;95574;;;15.1;81.7
77469;BME280;68840;50.272;12.818;2023-09-18T05:14:06;95571;;;15.1;83.2
77469;BME280;68840;50.272;12.818;2023-09-18T05:16:05;95573;;;15.1;82.8
77469;BME280;68840;50.272;12.818;2023-09-18T05:18:06;95576;;;15.2;83.2
77469;BME280;68840;50.272;12.818;2023-09-18T05:20:07;95576;;;15.2;81.6
77469;BME280;68840;50.272;12.818;2023-09-18T05:22:06;95580;;;15.2;80.5
77469;BME280;68840;50.272;12.818;2023-09-18T05:24:05;95580;;;15.2;79.2
77469;BME280;68840;50.272;12.818;2023-09-18T05:26:06;95584;;;15.2;80.8
77469;BME280;68840;50.272;12.818;2023-09-18T05:28:06;95585;;;15.2;81.6
77469;BME280;68840;50.272;12.818;2023-09-18T05:30:06;95581;;;15.2;81.7
77469;BME280;68840;50.272;12.818;2023-09-18T05:32:06;95580;;;15.3;81.6
77469;BME280;68840;50.272;12.818;2023-09-18T05:34:05;95578;;;15.3;81.6
77469;BME280;68840;50.272;12.818;2023-09-18T05:36:05;95578;;;15.3;83.8
77469;BME280;68840;50.272;12.818;2023-09-18T05:38:06;95575;;;15.4;83.8
77469;BME280;68840;50.272;12.818;2023-09-18T05:40:10;95577;;;15.4;83.3
77469;BME280;68840;50.272;12.818;2023-09-18T05:42:05;95577;;;15.5;84.2
77469;BME280;68840;50.272;12.818;2023-09-18T05:44:07;95576;;;15.6;84.3
77469;BME280;68840;50.272;12.818;2023-09-18T05:46:05;95574;;;15.6;84.0
77469;BME280;68840;50.272;12.818;2023-09-18T05:48:06;95577;;;15.7;84.3
77469;BME280;68840;50.272;12.818;2023-09-18T05:50:07;95579;;;15.7;83.9
77469;BME280;68840;50.272;12.818;2023-09-18T05:52:06;95581;;;15.8;84.2
77469;BME280;68840;50.272;12.818;2023-09-18T05:54:05;95579;;;15.9;83.9
77469;BME280;68840;50.272;12.818;2023-09-18T05:56:05;95582;;;15.9;84.9
77469;BME280;68840;50.272;12.818;2023-09-18T05:58:07;95583;;;16.0;85.5
77469;BME280;68840;50.272;12.818;2023-09-18T06:00:07;95579;;;16.1;84.1
77469;BME280;68840;50.272;12.818;2023-09-18T06:02:05;95573;;;16.1;84.2
77469;BME280;68840;50.272;12.818;2023-09-18T06:04:05;95569;;;16.2;84.3
77469;BME280;68840;50.272;12.818;2023-09-18T06:06:05;95573;;;16.2;83.5
77469;BME280;68840;50.272;12.818;2023-09-18T06:08:06;95579;;;16.3;85.0
77469;BME280;68840;50.272;12.818;2023-09-18T06:10:06;95580;;;16.4;84.2
77469;BME280;68840;50.272;12.818;2023-09-18T06:12:06;95578;;;16.5;83.6
77469;BME280;68840;50.272;12.818;2023-09-18T06:14:05;95573;;;16.6;82.7
77469;BME280;68840;50.272;12.818;2023-09-18T06:16:08;95567;;;16.7;81.5
77469;BME280;68840;50.272;12.818;2023-09-18T06:18:06;95564;;;16.8;81.9
77469;BME280;68840;50.272;12.818;2023-09-18T06:20:09;95558;;;16.9;83.2
77469;BME280;68840;50.272;12.818;2023-09-18T06:22:07;95551;;;17.0;84.6
77469;BME280;68840;50.272;12.818;2023-09-18T06:24:06;95544;;;17.1;85.9
77469;BME280;68840;50.272;12.818;2023-09-18T06:26:05;95543;;;17.2;85.1
77469;BME280;68840;50.272;12.818;2023-09-18T06:28:06;95541;;;17.4;85.0
77469;BME280;68840;50.272;12.818;2023-09-18T06:30:06;95538;;;17.5;84.0
77469;BME280;68840;50.272;12.818;2023-09-18T06:32:06;95536;;;17.6;84.2
77469;BME280;68840;50.272;12.818;2023-09-18T06:34:06;95537;;;17.8;83.9
77469;BME280;68840;50.272;12.818;2023-09-18T06:36:06;95535;;;17.9;83.6
77469;BME280;68840;50.272;12.818;2023-09-18T06:38:06;95534;;;18.0;81.9
77469;BME280;68840;50.272;12.818;2023-09-18T06:40:06;95528;;;18.1;81.7
77469;BME280;68840;50.272;12.818;2023-09-18T06:42:05;95526;;;18.2;80.1
77469;BME280;68840;50.272;12.818;2023-09-18T06:44:06;95531;;;18.4;78.7
77469;BME280;68840;50.272;12.818;2023-09-18T06:46:07;95533;;;18.5;79.8
77469;BME280;68840;50.272;12.818;2023-09-18T06:48:06;95531;;;18.6;78.3
77469;BME280;68840;50.272;12.818;2023-09-18T06:50:06;95532;;;18.7;77.4
77469;BME280;68840;50.272;12.818;2023-09-18T06:52:06;95529;;;18.9;76.2
77469;BME280;68840;50.272;12.818;2023-09-18T06:54:05;95527;;;19.0;79.0
77469;BME280;68840;50.272;12.818;2023-09-18T06:56:05;95527;;;19.1;76.4
77469;BME280;68840;50.272;12.818;2023-09-18T06:58:05;95524;;;19.2;77.9
77469;BME280;68840;50.272;12.818;2023-09-18T07:00:06;95518;;;19.3;74.5
77469;BME280;68840;50.272;12.818;2023-09-18T07:02:06;95517;;;19.4;73.2
77469;BME280;68840;50.272;12.818;2023-09-18T07:04:05;95517;;;19.4;73.7
77469;BME280;68840;50.272;12.818;2023-09-18T07:06:05;95514;;;19.5;74.9
77469;BME280;68840;50.272;12.818;2023-09-18T07:08:09;95510;;;19.6;76.1
77469;BME280;68840;50.272;12.818;2023-09-18T07:10:06;95510;;;19.7;74.8
77469;BME280;68840;50.272;12.818;2023-09-18T07:12:06;95511;;;19.7;74.9
77469;BME280;68840;50.272;12.818;2023-09-18T07:14:06;95512;;;19.8;74.2
77469;BME280;68840;50.272;12.818;2023-09-18T07:16:06;95516;;;19.9;74.7
77469;BME280;68840;50.272;12.818;2023-09-18T07:18:05;95517;;;20.0;75.3
77469;BME280;68840;50.272;12.818;2023-09-18T07:20:13;95514;;;20.1;78.1
77469;BME280;68840;50.272;12.818;2023-09-18T07:22:05;95514;;;20.2;75.6
77469;BME280;68840;50.272;12.818;2023-09-18T07:24:06;95522;;;20.3;72.6
77469;BME280;68840;50.272;12.818;2023-09-18T07:26:06;95538;;;20.4;72.4
77469;BME280;68840;50.272;12.818;2023-09-18T07:28:06;95537;;;20.5;73.3
77469;BME280;68840;50.272;12.818;2023-09-18T07:30:06;95530;;;20.6;71.8
77469;BME280;68840;50.272;12.818;2023-09-18T07:32:05;95529;;;20.8;71.1
77469;BME280;68840;50.272;12.818;2023-09-18T07:34:06;95533;;;20.8;68.6
77469;BME280;68840;50.272;12.818;2023-09-18T07:36:06;95537;;;20.9;68.4
77469;BME280;68840;50.272;12.818;2023-09-18T07:38:05;95536;;;20.9;68.6
77469;BME280;68840;50.272;12.818;2023-09-18T07:40:06;95535;;;21.0;68.1
77469;BME280;68840;50.272;12.818;2023-09-18T07:42:06;95535;;;21.0;66.6
77469;BME280;68840;50.272;12.818;2023-09-18T07:44:05;95529;;;21.0;68.5
77469;BME280;68840;50.272;12.818;2023-09-18T07:46:05;95523;;;21.0;67.7
77469;BME280;68840;50.272;12.818;2023-09-18T07:48:06;95521;;;21.1;70.7
77469;BME280;68840;50.272;12.818;2023-09-18T07:50:06;95523;;;21.1;68.7
77469;BME280;68840;50.272;12.818;2023-09-18T07:52:05;95521;;;21.2;67.3
77469;BME280;68840;50.272;12.818;2023-09-18T07:54:07;95519;;;21.3;66.3
77469;BME280;68840;50.272;12.818;2023-09-18T07:56:05;95517;;;21.4;68.5
77469;BME280;68840;50.272;12.818;2023-09-18T07:58:05;95522;;;21.4;65.8
77469;BME280;68840;50.272;12.818;2023-09-18T08:00:09;95530;;;21.5;65.5
77469;BME280;68840;50.272;12.818;2023-09-18T08:02:06;95532;;;21.5;64.5
77469;BME280;68840;50.272;12.818;2023-09-18T08:04:06;95522;;;21.5;64.6
77469;BME280;68840;50.272;12.818;2023-09-18T08:06:05;95515;;;21.4;65.3
77469;BME280;68840;50.272;12.818;2023-09-18T08:08:06;95512;;;21.4;66.9
77469;BME280;68840;50.272;12.818;2023-09-18T08:10:08;95521;;;21.4;65.7
77469;BME280;68840;50.272;12.818;2023-09-18T08:12:06;95533;;;21.4;66.1
77469;BME280;68840;50.272;12.818;2023-09-18T08:14:05;95538;;;21.4;66.7
77469;BME280;68840;50.272;12.818;2023-09-18T08:16:07;95537;;;21.4;65.2
77469;BME280;68840;50.272;12.818;2023-09-18T08:18:05;95543;;;21.4;65.8
77469;BME280;68840;50.272;12.818;2023-09-18T08:20:12;95546;;;21.4;67.2
77469;BME280;68840;50.272;12.818;2023-09-18T08:22:05;95541;;;21.4;65.9
77469;BME280;68840;50.272;12.818;2023-09-18T08:24:05;95540;;;21.4;66.9
77469;BME280;68840;50.272;12.818;2023-09-18T08:26:05;95550;;;21.4;65.6
77469;BME280;68840;50.272;12.818;2023-09-18T08:28:06;95555;;;21.4;65.2
77469;BME280;68840;50.272;12.818;2023-09-18T08:30:06;95552;;;21.4;66.1
77469;BME280;68840;50.272;12.818;2023-09-18T08:32:05;95548;;;21.4;67.2
77469;BME280;68840;50.272;12.818;2023-09-18T08:34:05;95543;;;21.5;66.7
77469;BME280;68840;50.272;12.818;2023-09-18T08:36:05;95538;;;21.5;67.0
77469;BME280;68840;50.272;12.818;2023-09-18T08:38:06;95543;;;21.5;66.0
77469;BME280;68840;50.272;12.818;2023-09-18T08:40:10;95544;;;21.5;67.2
77469;BME280;68840;50.272;12.818;2023-09-18T08:42:07;95544;;;21.6;67.1
77469;BME280;68840;50.272;12.818;2023-09-18T08:44:07;95543;;;21.6;65.1
77469;BME280;68840;50.272;12.818;2023-09-18T08:46:06;95543;;;21.6;65.1
77469;BME280;68840;50.272;12.818;2023-09-18T08:48:05;95550;;;21.6;64.2
77469;BME280;68840;50.272;12.818;2023-09-18T08:50:07;95555;;;21.5;64.5
77469;BME280;68840;50.272;12.818;2023-09-18T08:52:06;95560;;;21.5;64.9
77469;BME280;68840;50.272;12.818;2023-09-18T08:54:06;95564;;;21.5;64.6
77469;BME280;68840;50.272;12.818;2023-09-18T08:56:06;95562;;;21.5;64.9
77469;BME280;68840;50.272;12.818;2023-09-18T08:58:06;95556;;;21.4;64.8
77469;BME280;68840;50.272;12.818;2023-09-18T09:00:07;95556;;;21.4;67.2
77469;BME280;68840;50.272;12.818;2023-09-18T09:02:06;95557;;;21.4;68.9
77469;BME280;68840;50.272;12.818;2023-09-18T09:04:05;95556;;;21.4;66.8
77469;BME280;68840;50.272;12.818;2023-09-18T09:06:06;95555;;;21.5;67.9
77469;BME280;68840;50.272;12.818;2023-09-18T09:08:05;95553;;;21.5;67.8
77469;BME280;68840;50.272;12.818;2023-09-18T09:10:06;95555;;;21.6;67.9
77469;BME280;68840;50.272;12.818;2023-09-18T09:12:06;95555;;;21.7;69.4
77469;BME280;68840;50.272;12.818;2023-09-18T09:14:12;95553;;;21.9;68.3
77469;BME280;68840;50.272;12.818;2023-09-18T09:16:06;95548;;;22.0;67.6
77469;BME280;68840;50.272;12.818;2023-09-18T09:18:07;95543;;;22.2;68.5
77469;BME280;68840;50.272;12.818;2023-09-18T09:20:08;95544;;;22.4;67.3
77469;BME280;68840;50.272;12.818;2023-09-18T09:22:07;95540;;;22.6;65.9
77469;BME280;68840;50.272;12.818;2023-09-18T09:24:06;95533;;;22.8;67.9
77469;BME280;68840;50.272;12.818;2023-09-18T09:26:13;95532;;;23.0;64.9
77469;BME280;68840;50.272;12.818;2023-09-18T09:28:07;95534;;;23.2;65.7
77469;BME280;68840;50.272;12.818;2023-09-18T09:30:06;95534;;;23.4;63.8
77469;BME280;68840;50.272;12.818;2023-09-18T09:32:15;95533;;;23.7;61.5
77469;BME280;68840;50.272;12.818;2023-09-18T09:34:05;95531;;;23.8;63.1
77469;BME280;68840;50.272;12.818;2023-09-18T09:36:05;95528;;;23.9;62.6
77469;BME280;68840;50.272;12.818;2023-09-18T09:38:08;95527;;;24.0;60.6
77469;BME280;68840;50.272;12.818;2023-09-18T09:40:09;95527;;;24.1;60.4
77469;BME280;68840;50.272;12.818;2023-09-18T09:42:06;95523;;;24.2;61.6
77469;BME280;68840;50.272;12.818;2023-09-18T09:44:05;95518;;;24.3;60.3
77469;BME280;68840;50.272;12.818;2023-09-18T09:46:05;95519;;;24.3;59.4
77469;BME280;68840;50.272;12.818;2023-09-18T09:48:07;95516;;;24.4;58.6
77469;BME280;68840;50.272;12.818;2023-09-18T09:50:08;95510;;;24.4;58.1
77469;BME280;68840;50.272;12.818;2023-09-18T09:52:18;95506;;;24.4;59.7
77469;BME280;68840;50.272;12.818;2023-09-18T09:54:07;95504;;;24.4;59.1
77469;BME280;68840;50.272;12.818;2023-09-18T09:56:05;95506;;;24.4;59.9
77469;BME280;68840;50.272;12.818;2023-09-18T09:58:08;95507;;;24.4;59.3
77469;BME280;68840;50.272;12.818;2023-09-18T10:00:21;95506;;;24.4;59.0
77469;BME280;68840;50.272;12.818;2023-09-18T10:02:09;95506;;;24.4;59.0
77469;BME280;68840;50.272;12.818;2023-09-18T10:04:09;95504;;;24.5;62.5
77469;BME280;68840;50.272;12.818;2023-09-18T10:06:06;95506;;;24.5;60.3
77469;BME280;68840;50.272;12.818;2023-09-18T10:08:08;95500;;;24.7;61.9
77469;BME280;68840;50.272;12.818;2023-09-18T10:10:06;95495;;;24.8;59.0
77469;BME280;68840;50.272;12.818;2023-09-18T10:12:11;95492;;;25.0;59.2
77469;BME280;68840;50.272;12.818;2023-09-18T10:14:12;95491;;;25.2;58.6
77469;BME280;68840;50.272;12.818;2023-09-18T10:16:07;95486;;;25.3;57.3
77469;BME280;68840;50.272;12.818;2023-09-18T10:18:10;95481;;;25.4;57.8
77469;BME280;68840;50.272;12.818;2023-09-18T10:20:09;95481;;;25.5;59.2
77469;BME280;68840;50.272;12.818;2023-09-18T10:22:14;95482;;;25.6;58.4
77469;BME280;68840;50.272;12.818;2023-09-18T10:24:14;95485;;;25.7;55.0
77469;BME280;68840;50.272;12.818;2023-09-18T10:26:07;95488;;;25.8;56.0
77469;BME280;68840;50.272;12.818;2023-09-18T10:28:08;95487;;;25.9;53.4
77469;BME280;68840;50.272;12.818;2023-09-18T10:30:10;95481;;;26.0;53.7
77469;BME280;68840;50.272;12.818;2023-09-18T10:32:08;95480;;;26.0;58.0
77469;BME280;68840;50.272;12.818;2023-09-18T10:34:06;95480;;;26.1;55.0
77469;BME280;68840;50.272;12.818;2023-09-18T10:36:07;95472;;;26.2;53.3
77469;BME280;68840;50.272;12.818;2023-09-18T10:38:06;95470;;;26.3;55.8
77469;BME280;68840;50.272;12.818;2023-09-18T10:40:08;95468;;;26.4;55.0
77469;BME280;68840;50.272;12.818;2023-09-18T10:42:08;95469;;;26.5;54.8
77469;BME280;68840;50.272;12.818;2023-09-18T10:44:06;95467;;;26.6;53.6
77469;BME280;68840;50.272;12.818;2023-09-18T10:46:06;95468;;;26.7;53.5
77469;BME280;68840;50.272;12.818;2023-09-18T10:48:09;95468;;;26.8;53.4
77469;BME280;68840;50.272;12.818;2023-09-18T10:50:07;95468;;;26.8;52.8
77469;BME280;68840;50.272;12.818;2023-09-18T10:52:11;95465;;;26.9;51.5
77469;BME280;68840;50.272;12.818;2023-09-18T10:54:07;95464;;;26.9;52.2
77469;BME280;68840;50.272;12.818;2023-09-18T10:56:06;95462;;;27.0;53.3
77469;BME280;68840;50.272;12.818;2023-09-18T10:58:06;95460;;;27.0;50.9
77469;BME280;68840;50.272;12.818;2023-09-18T11:00:13;95457;;;27.1;50.9
77469;BME280;68840;50.272;12.818;2023-09-18T11:02:08;95452;;;27.2;51.1
77469;BME280;68840;50.272;12.818;2023-09-18T11:04:07;95451;;;27.2;52.4
77469;BME280;68840;50.272;12.818;2023-09-18T11:06:07;95452;;;27.2;50.1
77469;BME280;68840;50.272;12.818;2023-09-18T11:08:43;95452;;;27.3;51.8
77469;BME280;68840;50.272;12.818;2023-09-18T11:10:25;95453;;;27.4;54.0